createdAt,value
2019-01-23T00:02:14.334Z,30.30
2019-01-23T00:04:45.996Z,38.77
2019-01-23T00:07:17.644Z,34.07
2019-01-23T00:09:49.289Z,35.97
2019-01-23T00:12:20.935Z,27.40
2019-01-23T00:14:52.570Z,23.93
2019-01-23T00:17:24.209Z,33.87
2019-01-23T00:19:55.868Z,42.87
2019-01-23T00:22:27.523Z,27.30
2019-01-23T00:24:59.165Z,43.97
2019-01-23T00:27:30.792Z,39.60
2019-01-23T00:30:04.117Z,27.70
2019-01-23T00:32:35.844Z,31.37
2019-01-23T00:35:07.715Z,32.67
2019-01-23T00:37:39.366Z,40.50
2019-01-23T00:40:11.321Z,39.77
2019-01-23T00:42:43.081Z,38.93
2019-01-23T00:45:14.866Z,36.63
2019-01-23T00:47:46.760Z,44.60
2019-01-23T00:50:18.526Z,37.97
2019-01-23T00:52:50.174Z,38.37
2019-01-23T00:55:21.863Z,34.47
2019-01-23T00:57:53.565Z,40.17
2019-01-23T01:00:25.630Z,44.73
2019-01-23T01:02:57.489Z,41.87
2019-01-23T01:05:29.148Z,37.53
2019-01-23T01:08:00.778Z,40.20
2019-01-23T01:10:32.562Z,38.70
2019-01-23T01:13:04.382Z,38.13
2019-01-23T01:15:36.065Z,35.07
2019-01-23T01:18:07.794Z,41.07
2019-01-23T01:20:39.536Z,33.23
2019-01-23T01:23:11.268Z,44.80
2019-01-23T01:25:42.922Z,37.43
2019-01-23T01:28:14.559Z,38.83
2019-01-23T01:30:46.193Z,40.33
2019-01-23T01:33:17.826Z,41.63
2019-01-23T01:35:49.472Z,36.00
2019-01-23T01:38:21.665Z,39.87
2019-01-23T01:40:53.324Z,37.23
2019-01-23T01:43:24.957Z,43.47
2019-01-23T01:45:56.609Z,37.27
2019-01-23T01:48:28.248Z,32.07
2019-01-23T01:50:59.921Z,35.97
2019-01-23T01:53:31.574Z,37.03
2019-01-23T01:56:03.432Z,31.30
2019-01-23T01:58:35.085Z,35.07
2019-01-23T02:01:06.720Z,39.07
2019-01-23T02:03:38.344Z,38.33
2019-01-23T02:06:10.087Z,40.10
2019-01-23T02:08:41.724Z,34.47
2019-01-23T02:11:13.376Z,37.33
2019-01-23T02:13:45.009Z,39.50
2019-01-23T02:16:16.668Z,37.57
2019-01-23T02:18:48.308Z,37.53
2019-01-23T02:21:19.969Z,38.10
2019-01-23T02:23:51.700Z,38.50
2019-01-23T02:26:23.340Z,31.53
2019-01-23T02:28:54.966Z,37.13
2019-01-23T02:31:26.675Z,36.23
2019-01-23T02:33:58.341Z,35.23
2019-01-23T02:36:30.019Z,31.67
2019-01-23T02:39:01.826Z,36.60
2019-01-23T02:41:33.570Z,34.67
2019-01-23T02:44:05.191Z,34.30
2019-01-23T02:46:36.987Z,34.57
2019-01-23T02:49:08.682Z,35.73
2019-01-23T02:51:40.352Z,28.03
2019-01-23T02:54:11.981Z,32.00
2019-01-23T02:56:43.624Z,36.37
2019-01-23T02:59:17.440Z,25.73
2019-01-23T03:01:48.801Z,28.40
2019-01-23T03:04:20.428Z,33.07
2019-01-23T03:06:52.089Z,33.27
2019-01-23T03:09:23.724Z,35.87
2019-01-23T03:11:55.378Z,35.27
2019-01-23T03:14:27.017Z,26.63
2019-01-23T03:16:58.661Z,21.27
2019-01-23T03:19:30.502Z,29.90
2019-01-23T03:22:02.149Z,29.23
2019-01-23T03:24:33.799Z,22.10
2019-01-23T03:27:05.455Z,33.37
2019-01-23T03:29:37.074Z,27.87
2019-01-23T03:32:08.713Z,33.90
2019-01-23T03:34:40.326Z,33.73
2019-01-23T03:37:11.966Z,32.33
2019-01-23T03:39:43.612Z,36.43
2019-01-23T03:42:15.270Z,35.87
2019-01-23T03:44:46.925Z,24.37
2019-01-23T03:47:18.658Z,36.00
2019-01-23T03:49:50.291Z,36.43
2019-01-23T03:52:21.966Z,30.77
2019-01-23T03:54:53.596Z,32.43
2019-01-23T03:57:25.274Z,36.27
2019-01-23T03:59:56.908Z,38.37
2019-01-23T04:02:28.682Z,28.20
2019-01-23T04:05:00.321Z,35.63
2019-01-23T04:07:31.992Z,35.57
2019-01-23T04:10:05.885Z,31.27
2019-01-23T04:12:37.568Z,37.70
2019-01-23T04:15:10.224Z,27.93
2019-01-23T04:17:42.234Z,29.40
2019-01-23T04:20:15.966Z,34.93
2019-01-23T04:22:47.654Z,36.73
2019-01-23T04:25:19.429Z,33.57
2019-01-23T04:27:51.200Z,36.93
2019-01-23T04:30:23.110Z,19.47
2019-01-23T04:32:54.795Z,25.57
2019-01-23T04:35:26.446Z,40.13
2019-01-23T04:37:58.109Z,30.63
2019-01-23T04:40:29.737Z,31.53
2019-01-23T04:43:01.406Z,37.87
2019-01-23T04:45:33.042Z,38.00
2019-01-23T04:48:04.796Z,26.70
2019-01-23T04:50:56.118Z,20.97
2019-01-23T04:53:34.450Z,30.37
2019-01-23T04:56:06.107Z,33.73
2019-01-23T04:58:37.770Z,27.20
2019-01-23T05:01:09.600Z,33.47
2019-01-23T05:03:41.291Z,30.10
2019-01-23T05:06:12.924Z,35.57
2019-01-23T05:08:44.554Z,27.97
2019-01-23T05:11:16.282Z,34.33
2019-01-23T05:13:48.024Z,28.93
2019-01-23T05:16:19.667Z,36.27
2019-01-23T05:18:51.328Z,34.23
2019-01-23T05:21:22.958Z,34.50
2019-01-23T05:23:54.617Z,22.80
2019-01-23T05:26:26.244Z,30.93
2019-01-23T05:28:57.914Z,26.43
2019-01-23T05:31:29.549Z,34.60
2019-01-23T05:34:01.203Z,27.57
2019-01-23T05:36:32.892Z,26.07
2019-01-23T05:39:06.737Z,35.20
2019-01-23T05:41:38.382Z,34.70
2019-01-23T05:44:10.086Z,31.63
2019-01-23T05:46:41.782Z,34.33
2019-01-23T05:49:13.466Z,31.37
2019-01-23T05:51:45.129Z,29.37
2019-01-23T05:54:16.783Z,29.70
2019-01-23T05:56:48.693Z,32.67
2019-01-23T05:59:20.456Z,39.97
2019-01-23T06:01:52.174Z,24.60
2019-01-23T06:04:23.829Z,33.57
2019-01-23T06:06:55.466Z,26.40
2019-01-23T06:09:27.121Z,39.80
2019-01-23T06:11:58.745Z,28.77
2019-01-23T06:14:30.432Z,29.37
2019-01-23T06:17:02.053Z,36.30
2019-01-23T06:19:33.692Z,38.77
2019-01-23T06:22:05.309Z,33.27
2019-01-23T06:24:36.965Z,29.13
2019-01-23T06:27:08.587Z,32.53
2019-01-23T06:29:40.285Z,34.50
2019-01-23T06:32:11.925Z,27.50
2019-01-23T06:34:43.584Z,33.07
2019-01-23T06:37:15.673Z,35.70
2019-01-23T06:39:47.490Z,30.67
2019-01-23T06:42:19.116Z,36.63
2019-01-23T06:44:50.773Z,35.93
2019-01-23T06:47:22.405Z,35.77
2019-01-23T06:49:54.046Z,34.97
2019-01-23T06:52:25.679Z,25.80
2019-01-23T06:54:57.333Z,31.13
2019-01-23T06:57:28.952Z,38.27
2019-01-23T07:00:00.602Z,40.23
2019-01-23T07:02:32.257Z,37.83
2019-01-23T07:05:05.276Z,34.17
2019-01-23T07:07:36.918Z,27.23
2019-01-23T07:10:11.579Z,37.67
2019-01-23T07:12:43.198Z,35.00
2019-01-23T07:15:14.945Z,33.47
2019-01-23T07:17:46.597Z,35.07
2019-01-23T07:20:25.678Z,26.23
2019-01-23T07:22:57.303Z,36.17
2019-01-23T07:25:29.061Z,32.27
2019-01-23T07:28:00.734Z,36.40
2019-01-23T07:30:35.267Z,31.77
2019-01-23T07:33:06.897Z,41.97
2019-01-23T07:35:38.782Z,33.93
2019-01-23T07:38:10.415Z,29.47
2019-01-23T07:40:42.065Z,41.80
2019-01-23T07:43:13.696Z,34.17
2019-01-23T07:45:45.336Z,36.93
2019-01-23T07:48:17.110Z,32.73
2019-01-23T07:50:48.828Z,38.17
2019-01-23T07:53:20.460Z,39.27
2019-01-23T07:55:52.109Z,29.63
2019-01-23T07:58:23.732Z,45.83
2019-01-23T08:00:55.433Z,41.27
2019-01-23T08:03:27.088Z,41.53
2019-01-23T08:05:58.848Z,37.83
2019-01-23T08:08:30.478Z,41.03
2019-01-23T08:11:02.131Z,39.63
2019-01-23T08:13:33.748Z,45.20
2019-01-23T08:16:05.546Z,43.07
2019-01-23T08:18:37.175Z,38.20
2019-01-23T08:21:08.820Z,35.77
2019-01-23T08:23:40.461Z,42.70
2019-01-23T08:26:12.104Z,44.77
2019-01-23T08:28:43.735Z,44.37
2019-01-23T08:31:15.397Z,28.20
2019-01-23T08:33:47.016Z,40.30
2019-01-23T08:36:18.697Z,36.37
2019-01-23T08:38:50.326Z,37.63
2019-01-23T08:41:21.977Z,40.30
2019-01-23T08:43:53.645Z,46.80
2019-01-23T08:46:25.287Z,44.20
2019-01-23T08:48:56.913Z,47.23
2019-01-23T08:51:28.573Z,44.03
2019-01-23T08:54:00.244Z,47.60
2019-01-23T08:56:31.921Z,37.83
2019-01-23T08:59:03.665Z,41.67
2019-01-23T09:01:35.310Z,48.20
2019-01-23T09:04:07.055Z,50.17
2019-01-23T09:06:38.717Z,48.73
2019-01-23T09:09:10.359Z,45.73
2019-01-23T09:11:42.017Z,53.07
2019-01-23T09:14:13.655Z,48.50
2019-01-23T09:16:45.304Z,46.37
2019-01-23T09:19:16.933Z,49.50
2019-01-23T09:21:48.682Z,52.80
2019-01-23T09:24:20.313Z,40.57
2019-01-23T09:26:52.033Z,44.73
2019-01-23T09:29:23.680Z,44.00
2019-01-23T09:32:20.879Z,47.23
2019-01-23T09:35:17.289Z,52.83
2019-01-23T09:38:10.593Z,55.57
2019-01-23T09:40:49.573Z,53.53
2019-01-23T09:43:44.098Z,61.43
2019-01-23T09:46:55.716Z,58.77
2019-01-23T09:50:17.006Z,32.83
2019-01-23T09:53:20.855Z,57.30
2019-01-23T09:55:52.750Z,59.17
2019-01-23T09:58:24.409Z,47.47
2019-01-23T10:00:59.686Z,51.20
2019-01-23T10:03:29.612Z,54.67
2019-01-23T10:06:01.289Z,59.83
2019-01-23T10:08:32.941Z,48.10
2019-01-23T10:11:04.588Z,68.37
2019-01-23T10:13:36.277Z,43.67
2019-01-23T10:16:11.684Z,61.13
2019-01-23T10:18:43.429Z,63.83
2019-01-23T10:21:15.396Z,59.90
2019-01-23T10:23:47.048Z,45.37
2019-01-23T10:26:18.670Z,41.47
2019-01-23T10:28:50.313Z,63.83
2019-01-23T10:31:21.975Z,64.67
2019-01-23T10:33:53.774Z,51.27
2019-01-23T10:36:25.501Z,65.53
2019-01-23T10:38:57.178Z,51.07
2019-01-23T10:41:28.804Z,61.57
2019-01-23T10:44:00.448Z,57.73
2019-01-23T10:46:32.397Z,54.33
2019-01-23T10:49:04.054Z,63.13
2019-01-23T10:51:35.676Z,62.93
2019-01-23T10:54:07.341Z,61.30
2019-01-23T10:56:39.173Z,66.33
2019-01-23T10:59:10.847Z,61.60
2019-01-23T11:01:42.686Z,68.17
2019-01-23T11:04:14.341Z,77.03
2019-01-23T11:06:45.999Z,46.17
2019-01-23T11:09:17.709Z,71.80
2019-01-23T11:11:49.398Z,68.10
2019-01-23T11:14:21.057Z,73.20
2019-01-23T11:16:52.698Z,82.80
2019-01-23T11:19:24.339Z,77.63
2019-01-23T11:21:56.098Z,72.60
2019-01-23T11:24:27.741Z,74.93
2019-01-23T11:26:59.397Z,73.33
2019-01-23T11:29:31.092Z,79.13
2019-01-23T11:32:02.872Z,83.77
2019-01-23T11:34:34.514Z,83.07
2019-01-23T11:37:06.148Z,83.50
2019-01-23T11:39:37.816Z,86.20
2019-01-23T11:42:09.667Z,83.80
2019-01-23T11:44:41.330Z,82.17
2019-01-23T11:47:12.965Z,83.97
2019-01-23T11:49:44.600Z,81.30
2019-01-23T11:52:16.337Z,76.93
2019-01-23T11:54:48.087Z,82.40
2019-01-23T11:57:19.746Z,80.30
2019-01-23T11:59:51.412Z,82.63
2019-01-23T12:02:23.061Z,84.13
2019-01-23T12:04:54.727Z,74.97
2019-01-23T12:07:26.364Z,75.20
2019-01-23T12:09:58.034Z,77.80
2019-01-23T12:12:29.676Z,61.93
2019-01-23T12:15:01.535Z,79.00
2019-01-23T12:17:33.198Z,74.80
2019-01-23T12:20:05.225Z,74.50
2019-01-23T12:22:37.065Z,72.97
2019-01-23T12:25:09.784Z,78.47
2019-01-23T12:27:41.809Z,74.70
2019-01-23T12:30:19.829Z,69.33
2019-01-23T12:32:51.479Z,58.63
2019-01-23T12:35:23.144Z,56.07
2019-01-23T12:37:54.924Z,67.20
2019-01-23T12:40:26.621Z,71.77
2019-01-23T12:42:58.409Z,71.67
2019-01-23T12:45:30.440Z,70.43
2019-01-23T12:48:02.083Z,75.90
2019-01-23T12:50:33.724Z,77.87
2019-01-23T12:53:05.472Z,62.57
2019-01-23T12:55:37.118Z,73.07
2019-01-23T12:58:08.792Z,80.93
2019-01-23T13:00:40.572Z,75.30
2019-01-23T13:03:12.344Z,80.47
2019-01-23T13:05:44.244Z,50.53
2019-01-23T13:08:16.074Z,71.10
2019-01-23T13:10:47.688Z,64.30
2019-01-23T13:13:19.850Z,76.13
2019-01-23T13:15:51.594Z,57.67
2019-01-23T13:18:23.364Z,65.63
2019-01-23T13:20:55.027Z,66.20
2019-01-23T13:23:26.694Z,79.03
2019-01-23T13:25:58.345Z,72.13
2019-01-23T13:28:30.002Z,78.50
2019-01-23T13:31:01.644Z,65.07
2019-01-23T13:33:34.553Z,70.93
2019-01-23T13:36:07.854Z,83.90
2019-01-23T13:38:39.518Z,50.47
2019-01-23T13:41:11.140Z,69.83
2019-01-23T13:43:42.772Z,65.17
2019-01-23T13:46:14.394Z,60.27
2019-01-23T13:48:46.042Z,64.73
2019-01-23T13:51:17.792Z,75.57
2019-01-23T13:53:49.438Z,79.53
2019-01-23T13:56:21.162Z,67.77
2019-01-23T13:58:52.821Z,72.00
2019-01-23T14:01:24.453Z,65.93
2019-01-23T14:03:56.127Z,72.07
2019-01-23T14:06:27.761Z,63.43
2019-01-23T14:08:59.425Z,53.83
2019-01-23T14:11:31.056Z,63.07
2019-01-23T14:14:02.803Z,47.90
2019-01-23T14:16:34.646Z,53.50
2019-01-23T14:19:14.240Z,57.03
2019-01-23T14:21:45.856Z,71.03
2019-01-23T14:24:17.498Z,58.07
2019-01-23T14:26:49.141Z,48.87
2019-01-23T14:29:20.773Z,65.53
2019-01-23T14:31:52.410Z,55.03
2019-01-23T14:34:24.052Z,67.57
2019-01-23T14:36:55.708Z,60.30
2019-01-23T14:39:27.356Z,37.60
2019-01-23T14:41:58.994Z,62.27
2019-01-23T14:44:30.745Z,57.07
2019-01-23T14:47:02.465Z,58.80
2019-01-23T14:49:34.106Z,66.07
2019-01-23T14:52:06.097Z,56.83
2019-01-23T14:54:57.609Z,56.27
2019-01-23T14:57:41.878Z,37.10
2019-01-23T15:00:27.006Z,44.37
2019-01-23T15:02:58.741Z,51.50
2019-01-23T15:05:50.085Z,37.60
2019-01-23T15:08:41.402Z,31.17
2019-01-23T15:11:26.319Z,39.67
2019-01-23T15:14:11.299Z,40.73
2019-01-23T15:16:55.436Z,46.77
2019-01-23T15:19:40.448Z,40.53
2019-01-23T15:22:25.299Z,47.27
2019-01-23T15:25:10.114Z,40.07
2019-01-23T15:27:54.276Z,34.77
2019-01-23T15:30:38.570Z,38.47
2019-01-23T15:33:22.762Z,36.80
2019-01-23T15:36:07.039Z,43.23
2019-01-23T15:38:51.246Z,41.70
2019-01-23T15:41:36.235Z,34.17
2019-01-23T15:44:21.335Z,25.17
2019-01-23T15:47:03.939Z,40.67
2019-01-23T15:49:55.273Z,36.53
2019-01-23T15:52:39.693Z,37.77
2019-01-23T15:55:24.717Z,39.90
2019-01-23T15:58:09.045Z,36.77
2019-01-23T16:00:54.050Z,40.57
2019-01-23T16:03:38.890Z,32.20
2019-01-23T16:06:23.963Z,25.50
2019-01-23T16:09:08.946Z,33.90
2019-01-23T16:11:53.255Z,34.17
2019-01-23T16:14:38.529Z,28.40
2019-01-23T16:17:23.561Z,28.03
2019-01-23T16:20:08.479Z,31.27
2019-01-23T16:22:52.592Z,23.60
2019-01-23T16:25:37.450Z,29.93
2019-01-23T16:28:22.532Z,31.00
2019-01-23T16:31:07.264Z,32.13
2019-01-23T16:33:51.401Z,23.83
2019-01-23T16:36:36.251Z,32.80
2019-01-23T16:39:21.290Z,19.77
2019-01-23T16:42:06.382Z,32.13
2019-01-23T16:44:51.425Z,33.47
2019-01-23T16:47:36.510Z,33.47
2019-01-23T16:50:21.490Z,26.90
2019-01-23T16:53:05.719Z,29.63
2019-01-23T16:55:50.782Z,22.73
2019-01-23T16:58:34.930Z,25.87
2019-01-23T17:01:19.067Z,30.07
2019-01-23T17:04:04.200Z,24.13
2019-01-23T17:06:48.434Z,31.30
2019-01-23T17:09:34.190Z,32.50
2019-01-23T17:12:18.539Z,23.63
2019-01-23T17:15:02.914Z,19.20
2019-01-23T17:17:48.033Z,32.63
2019-01-23T17:20:33.107Z,23.47
2019-01-23T17:23:17.282Z,22.80
2019-01-23T17:25:59.783Z,28.73
2019-01-23T17:28:44.610Z,20.73
2019-01-23T17:31:29.660Z,19.43
2019-01-23T17:34:13.981Z,28.57
2019-01-23T17:36:58.798Z,29.63
2019-01-23T17:39:30.564Z,22.30
2019-01-23T17:42:21.894Z,24.30
2019-01-23T17:45:06.603Z,25.93
2019-01-23T17:47:50.855Z,19.70
2019-01-23T17:50:34.996Z,24.67
2019-01-23T17:53:19.165Z,27.40
2019-01-23T17:56:01.606Z,26.07
2019-01-23T17:58:46.161Z,23.33
2019-01-23T18:01:28.879Z,23.43
2019-01-23T18:04:13.194Z,20.73
2019-01-23T18:06:58.081Z,25.90
2019-01-23T18:09:43.046Z,16.97
2019-01-23T18:12:25.526Z,22.20
2019-01-23T18:15:10.425Z,13.97
2019-01-23T18:17:55.298Z,18.60
2019-01-23T18:20:40.167Z,15.83
2019-01-23T18:23:25.180Z,20.20
2019-01-23T18:26:09.390Z,23.00
2019-01-23T18:28:53.557Z,13.77
2019-01-23T18:31:38.551Z,16.30
2019-01-23T18:34:23.352Z,24.30
2019-01-23T18:37:08.403Z,23.10
2019-01-23T18:39:53.464Z,24.03
2019-01-23T18:43:01.449Z,17.07
2019-01-23T18:45:45.721Z,20.30
2019-01-23T18:48:30.679Z,21.90
2019-01-23T18:51:15.546Z,15.87
2019-01-23T18:54:00.520Z,17.27
2019-01-23T18:56:45.462Z,22.03
2019-01-23T18:59:30.468Z,24.00
2019-01-23T19:02:15.236Z,22.27
2019-01-23T19:05:00.111Z,19.43
2019-01-23T19:07:44.984Z,15.87
2019-01-23T19:10:30.101Z,18.87
2019-01-23T19:13:14.791Z,17.27
2019-01-23T19:15:59.656Z,18.20
2019-01-23T19:18:44.595Z,23.07
2019-01-23T19:21:30.027Z,21.57
2019-01-23T19:24:15.029Z,17.07
2019-01-23T19:26:59.465Z,20.63
2019-01-23T19:29:44.468Z,15.53
2019-01-23T19:32:27.107Z,21.07
2019-01-23T19:35:11.578Z,21.77
2019-01-23T19:37:56.639Z,15.47
2019-01-23T19:40:41.438Z,21.80
2019-01-23T19:43:25.683Z,15.93
2019-01-23T19:46:11.066Z,18.83
2019-01-23T19:48:55.694Z,18.37
2019-01-23T19:51:39.977Z,17.47
2019-01-23T19:54:24.898Z,16.83
2019-01-23T19:57:09.846Z,17.07
2019-01-23T19:59:54.955Z,19.10
2019-01-23T20:02:39.955Z,17.43
2019-01-23T20:05:24.189Z,19.23
2019-01-23T20:08:09.109Z,23.87
2019-01-23T20:10:54.191Z,22.10
2019-01-23T20:13:36.666Z,24.33
2019-01-23T20:16:21.599Z,25.43
2019-01-23T20:19:06.398Z,25.00
2019-01-23T20:21:50.571Z,15.73
2019-01-23T20:24:34.799Z,22.23
2019-01-23T20:27:18.958Z,25.30
2019-01-23T20:30:04.018Z,22.93
2019-01-23T20:32:49.957Z,21.27
2019-01-23T20:35:34.267Z,25.60
2019-01-23T20:38:18.463Z,19.93
2019-01-23T20:41:02.683Z,22.73
2019-01-23T20:43:46.841Z,17.43
2019-01-23T20:46:31.822Z,23.83
2019-01-23T20:49:16.138Z,23.17
2019-01-23T20:52:01.239Z,21.57
2019-01-23T20:54:45.430Z,24.70
2019-01-23T20:57:29.623Z,23.57
2019-01-23T21:00:14.843Z,21.53
2019-01-23T21:03:00.002Z,19.60
2019-01-23T21:05:42.487Z,24.63
2019-01-23T21:08:27.147Z,26.07
2019-01-23T21:11:09.593Z,24.10
2019-01-23T21:13:54.598Z,24.77
2019-01-23T21:16:40.401Z,18.40
2019-01-23T21:19:25.639Z,20.77
2019-01-23T21:22:13.177Z,23.80
2019-01-23T21:24:57.841Z,24.00
2019-01-23T21:27:42.085Z,25.40
2019-01-23T21:30:27.202Z,21.77
2019-01-23T21:33:11.435Z,24.37
2019-01-23T21:35:56.423Z,24.03
2019-01-23T21:38:41.592Z,25.03
2019-01-23T21:41:26.519Z,24.13
2019-01-23T21:44:11.370Z,25.73
2019-01-23T21:46:55.582Z,18.83
2019-01-23T21:49:40.617Z,21.70
2019-01-23T21:52:23.221Z,26.17
2019-01-23T21:55:07.718Z,25.47
2019-01-23T21:57:52.815Z,25.23
2019-01-23T22:00:37.910Z,26.23
2019-01-23T22:03:23.011Z,25.73
2019-01-23T22:06:07.229Z,24.67
2019-01-23T22:08:51.318Z,25.33
2019-01-23T22:11:36.274Z,24.33
2019-01-23T22:14:21.269Z,24.50
2019-01-23T22:17:06.238Z,26.07
2019-01-23T22:19:48.648Z,25.43
2019-01-23T22:22:39.974Z,25.23
2019-01-23T22:25:24.303Z,24.00
2019-01-23T22:28:09.343Z,21.90
2019-01-23T22:30:51.893Z,22.13
2019-01-23T22:33:36.316Z,23.80
2019-01-23T22:36:21.113Z,24.63
2019-01-23T22:39:05.262Z,27.90
2019-01-23T22:41:56.577Z,20.47
2019-01-23T22:44:41.400Z,26.70
2019-01-23T22:47:26.175Z,18.83
2019-01-23T22:50:11.269Z,25.67
2019-01-23T22:52:53.695Z,25.50
2019-01-23T22:55:38.391Z,13.60
2019-01-23T22:58:22.601Z,18.37
2019-01-23T23:01:07.528Z,24.20
2019-01-23T23:03:52.475Z,24.23
2019-01-23T23:06:36.649Z,24.83
2019-01-23T23:09:21.646Z,23.87
2019-01-23T23:12:06.691Z,24.30
2019-01-23T23:14:49.253Z,24.80
2019-01-23T23:17:40.569Z,25.63
2019-01-23T23:20:24.742Z,24.87
2019-01-23T23:23:07.349Z,25.60
2019-01-23T23:25:51.874Z,24.33
2019-01-23T23:28:36.905Z,20.93
2019-01-23T23:31:21.060Z,18.10
2019-01-23T23:34:09.951Z,23.97
2019-01-23T23:36:49.637Z,24.57
2019-01-23T23:39:34.146Z,17.10
2019-01-23T23:42:18.430Z,23.97
2019-01-23T23:45:02.562Z,25.10
2019-01-23T23:47:47.561Z,25.07
2019-01-23T23:50:32.694Z,19.30
2019-01-23T23:53:17.691Z,23.73
2019-01-23T23:56:02.677Z,24.70
2019-01-23T23:58:47.557Z,24.03
